createdAt,value
2017-04-27T00:05:51.640Z,0
2017-04-27T00:08:18.169Z,0
2017-04-27T00:08:59.059Z,0
2017-04-27T01:09:07.897Z,0
2017-04-27T01:09:48.827Z,0
2017-04-27T01:15:09.241Z,0
2017-04-27T01:19:23.100Z,0
2017-04-27T01:28:04.454Z,0
2017-04-27T01:30:38.705Z,0
2017-04-27T01:31:26.265Z,0
2017-04-27T01:40:11.860Z,0
2017-04-27T01:40:52.771Z,0
2017-04-27T01:41:33.649Z,0
2017-04-27T01:42:21.196Z,0
2017-04-27T01:43:02.063Z,0
2017-04-27T01:43:42.947Z,0
2017-04-27T01:44:23.817Z,0
2017-04-27T01:45:11.249Z,0
2017-04-27T01:45:52.107Z,0
2017-04-27T01:46:32.965Z,0
2017-04-27T01:47:13.869Z,0
2017-04-27T01:47:54.704Z,0
2017-04-27T01:48:35.589Z,0
2017-04-27T01:49:16.455Z,0
2017-04-27T01:49:57.330Z,0
2017-04-27T01:50:38.217Z,0
2017-04-27T01:51:19.069Z,0
2017-04-27T01:51:59.927Z,0
2017-04-27T01:52:40.806Z,0
2017-04-27T01:53:21.665Z,0
2017-04-27T01:54:02.550Z,0
2017-04-27T01:54:46.330Z,0
2017-04-27T01:55:27.205Z,0
2017-04-27T01:56:08.129Z,0
2017-04-27T01:56:48.989Z,0
2017-04-27T01:57:30.685Z,0
2017-04-27T01:58:12.331Z,0
2017-04-27T01:58:53.189Z,0
2017-04-27T01:59:34.067Z,0
2017-04-27T02:00:17.693Z,0
2017-04-27T02:00:58.552Z,0
2017-04-27T02:01:39.436Z,0
2017-04-27T02:02:20.290Z,0
2017-04-27T02:03:01.165Z,0
2017-04-27T02:06:46.223Z,0
2017-04-27T02:07:26.859Z,0
2017-04-27T02:08:07.752Z,0
2017-04-27T02:08:48.627Z,0
2017-04-27T02:11:17.732Z,0
2017-04-27T02:11:59.551Z,0
2017-04-27T02:12:40.406Z,0
2017-04-27T02:13:39.046Z,0
2017-04-27T02:14:19.933Z,0
2017-04-27T02:17:09.225Z,0
2017-04-27T02:17:51.019Z,0
2017-04-27T02:19:29.415Z,0
2017-04-27T02:20:10.299Z,0
2017-04-27T02:20:51.123Z,0
2017-04-27T02:21:31.994Z,0
2017-04-27T02:23:46.550Z,0
2017-04-27T02:30:02.025Z,0
2017-04-27T02:30:42.983Z,0
2017-04-27T02:31:23.840Z,0
2017-04-27T02:33:37.549Z,0
2017-04-27T02:34:18.423Z,0
2017-04-27T02:34:59.305Z,0
2017-04-27T02:35:42.758Z,0
2017-04-27T02:36:23.627Z,0
2017-04-27T02:42:03.582Z,0
2017-04-27T02:42:44.458Z,0
2017-04-27T02:46:46.412Z,0
2017-04-27T02:47:27.317Z,0
2017-04-27T02:48:08.186Z,0
2017-04-27T02:50:37.261Z,0
2017-04-27T02:51:18.154Z,0
2017-04-27T02:55:21.156Z,0
2017-04-27T02:56:02.087Z,0
2017-04-27T02:56:42.992Z,0
2017-04-27T03:00:15.492Z,0
2017-04-27T03:00:56.680Z,0
2017-04-27T03:01:52.118Z,0
2017-04-27T03:04:26.385Z,0
2017-04-27T03:06:55.470Z,0
2017-04-27T03:07:36.350Z,4
2017-04-27T03:09:55.223Z,4
2017-04-27T03:10:36.104Z,0
2017-04-27T03:11:16.988Z,0
2017-04-27T03:13:37.709Z,4
2017-04-27T03:14:23.645Z,4
2017-04-27T03:16:22.033Z,8
2017-04-27T03:19:01.403Z,8
2017-04-27T03:19:42.304Z,8
2017-04-27T03:20:38.032Z,8
2017-04-27T03:21:18.883Z,12
2017-04-27T03:25:25.957Z,20
2017-04-27T03:27:21.239Z,24
2017-04-27T03:31:29.390Z,36
2017-04-27T03:32:11.296Z,44
2017-04-27T03:32:51.100Z,44
2017-04-27T03:33:32.023Z,48
2017-04-27T03:34:19.485Z,52
2017-04-27T03:35:00.407Z,56
2017-04-27T03:36:59.624Z,72
2017-04-27T03:37:40.156Z,72
2017-04-27T03:38:21.011Z,80
2017-04-27T03:39:01.884Z,84
2017-04-27T03:39:42.764Z,92
2017-04-27T03:40:23.718Z,96
2017-04-27T03:41:04.587Z,104
2017-04-27T03:41:45.423Z,108
2017-04-27T03:42:30.919Z,116
2017-04-27T03:43:11.784Z,120
2017-04-27T03:43:52.654Z,128
2017-04-27T03:44:36.992Z,140
2017-04-27T03:45:17.901Z,148
2017-04-27T03:48:50.515Z,216
2017-04-27T03:54:30.528Z,340
2017-04-27T03:58:37.641Z,460
2017-04-27T04:02:40.355Z,524
2017-04-27T04:03:21.224Z,556
2017-04-27T04:05:50.407Z,656
2017-04-27T04:06:50.652Z,688
2017-04-27T04:07:31.541Z,728
2017-04-27T04:08:12.425Z,752
2017-04-27T04:08:53.278Z,784
2017-04-27T04:09:34.135Z,816
2017-04-27T04:11:47.875Z,876
2017-04-27T04:12:28.799Z,896
2017-04-27T04:13:09.712Z,928
2017-04-27T04:15:38.783Z,936
2017-04-27T04:16:19.648Z,924
2017-04-27T04:17:00.519Z,904
2017-04-27T04:17:41.439Z,868
2017-04-27T04:18:37.009Z,808
2017-04-27T04:19:17.917Z,772
2017-04-27T04:19:58.782Z,744
2017-04-27T04:20:39.651Z,732
2017-04-27T04:21:20.517Z,724
2017-04-27T04:23:49.601Z,784
2017-04-27T04:24:31.523Z,824
2017-04-27T04:25:12.429Z,864
2017-04-27T04:25:53.399Z,904
2017-04-27T04:26:34.263Z,932
2017-04-27T04:27:15.102Z,956
2017-04-27T04:27:55.977Z,976
2017-04-27T04:28:36.843Z,996
2017-04-27T04:29:17.718Z,1024
2017-04-27T04:29:58.599Z,1072
2017-04-27T04:32:27.158Z,1428
2017-04-27T04:33:08.029Z,1520
2017-04-27T04:33:48.951Z,1544
2017-04-27T04:34:29.809Z,1572
2017-04-27T04:35:13.163Z,1584
2017-04-27T04:35:54.062Z,1576
2017-04-27T04:36:37.528Z,1584
2017-04-27T04:37:18.376Z,1612
2017-04-27T04:39:33.690Z,1780
2017-04-27T04:42:45.058Z,1724
2017-04-27T04:45:23.032Z,1840
2017-04-27T04:46:03.896Z,1988
2017-04-27T04:46:44.835Z,2088
2017-04-27T04:47:25.698Z,2128
2017-04-27T04:48:06.552Z,2144
2017-04-27T04:48:47.408Z,2184
2017-04-27T04:49:28.274Z,2264
2017-04-27T04:50:09.140Z,2372
2017-04-27T04:50:50.025Z,2408
2017-04-27T04:51:30.938Z,2440
2017-04-27T04:52:11.794Z,2520
2017-04-27T04:52:52.762Z,2644
2017-04-27T04:53:33.607Z,2820
2017-04-27T04:54:14.470Z,2992
2017-04-27T04:54:55.349Z,3172
2017-04-27T04:55:36.190Z,3352
2017-04-27T04:56:17.066Z,3480
2017-04-27T04:56:57.936Z,3576
2017-04-27T04:59:43.004Z,3468
2017-04-27T05:00:23.890Z,3556
2017-04-27T05:01:04.789Z,3612
2017-04-27T05:02:00.390Z,3440
2017-04-27T05:02:41.245Z,3204
2017-04-27T05:03:22.168Z,3068
2017-04-27T05:04:03.061Z,3052
2017-04-27T05:04:43.941Z,3164
2017-04-27T05:05:24.832Z,3340
2017-04-27T05:06:05.753Z,3480
2017-04-27T05:06:46.619Z,3548
2017-04-27T05:07:27.485Z,3584
2017-04-27T05:08:08.357Z,3560
2017-04-27T05:08:49.282Z,3492
2017-04-27T05:09:30.143Z,3480
2017-04-27T05:10:11.006Z,3532
2017-04-27T05:10:51.915Z,3572
2017-04-27T05:11:32.763Z,3528
2017-04-27T05:12:14.865Z,3392
2017-04-27T05:12:55.551Z,3264
2017-04-27T05:13:36.428Z,3244
2017-04-27T05:14:17.309Z,3376
2017-04-27T05:14:58.196Z,3576
2017-04-27T05:15:39.067Z,3772
2017-04-27T05:16:19.952Z,3968
2017-04-27T05:17:00.823Z,4112
2017-04-27T05:17:41.699Z,4132
2017-04-27T05:18:22.582Z,4160
2017-04-27T05:19:03.467Z,4228
2017-04-27T05:19:44.350Z,4256
2017-04-27T05:20:25.210Z,4244
2017-04-27T05:21:06.070Z,4220
2017-04-27T05:21:46.969Z,4168
2017-04-27T05:22:27.867Z,4136
2017-04-27T05:23:08.714Z,4144
2017-04-27T05:23:49.577Z,4208
2017-04-27T05:24:30.444Z,4304
2017-04-27T05:25:11.309Z,4464
2017-04-27T05:25:52.250Z,4604
2017-04-27T05:26:33.112Z,4736
2017-04-27T05:27:13.969Z,4784
2017-04-27T05:27:54.832Z,4816
2017-04-27T05:28:35.701Z,4888
2017-04-27T05:29:16.565Z,4916
2017-04-27T05:29:57.451Z,4932
2017-04-27T05:30:38.336Z,4660
2017-04-27T05:31:19.278Z,4376
2017-04-27T05:32:00.158Z,4332
2017-04-27T05:32:41.019Z,4272
2017-04-27T05:33:21.891Z,4060
2017-04-27T05:34:02.796Z,3724
2017-04-27T05:34:43.685Z,3372
2017-04-27T05:35:24.579Z,3336
2017-04-27T05:36:05.506Z,3660
2017-04-27T05:36:46.380Z,4092
2017-04-27T05:37:27.256Z,4072
2017-04-27T05:38:08.135Z,3784
2017-04-27T05:38:49.004Z,3580
2017-04-27T05:39:29.882Z,3420
2017-04-27T05:40:10.764Z,3372
2017-04-27T05:40:51.673Z,3460
2017-04-27T05:41:32.553Z,3736
2017-04-27T05:42:13.423Z,4192
2017-04-27T05:42:54.303Z,4636
2017-04-27T05:43:35.174Z,4968
2017-04-27T05:44:16.089Z,5268
2017-04-27T05:44:56.967Z,5460
2017-04-27T05:45:37.835Z,5636
2017-04-27T05:46:18.747Z,5864
2017-04-27T05:46:59.631Z,5904
2017-04-27T05:47:40.511Z,5712
2017-04-27T05:48:21.393Z,5584
2017-04-27T05:49:02.248Z,5844
2017-04-27T05:49:43.107Z,6304
2017-04-27T05:50:23.982Z,6424
2017-04-27T05:51:04.855Z,6268
2017-04-27T05:51:45.731Z,5892
2017-04-27T05:52:26.618Z,5356
2017-04-27T05:53:07.492Z,5060
2017-04-27T05:55:01.130Z,4724
2017-04-27T05:55:42.002Z,4584
2017-04-27T05:56:22.871Z,4304
2017-04-27T05:57:03.741Z,4084
2017-04-27T05:57:44.614Z,3684
2017-04-27T05:58:25.517Z,3372
2017-04-27T05:59:06.390Z,3136
2017-04-27T05:59:47.286Z,3260
2017-04-27T06:00:28.160Z,3876
2017-04-27T06:01:09.088Z,4488
2017-04-27T06:01:49.974Z,4632
2017-04-27T06:02:30.880Z,4716
2017-04-27T06:03:11.760Z,4496
2017-04-27T06:03:52.639Z,4240
2017-04-27T06:04:33.546Z,4376
2017-04-27T06:05:14.401Z,4808
2017-04-27T06:05:55.287Z,5088
2017-04-27T06:06:36.149Z,5276
2017-04-27T06:07:17.026Z,5512
2017-04-27T06:07:57.896Z,5880
2017-04-27T06:08:38.781Z,5988
2017-04-27T06:09:19.662Z,5992
2017-04-27T06:10:00.533Z,5784
2017-04-27T06:10:41.404Z,5556
2017-04-27T06:11:22.288Z,5588
2017-04-27T06:12:03.159Z,5356
2017-04-27T06:12:44.061Z,5000
2017-04-27T06:13:24.915Z,4588
2017-04-27T06:14:05.800Z,4492
2017-04-27T06:14:46.663Z,4856
2017-04-27T06:15:27.552Z,5196
2017-04-27T06:16:08.432Z,5100
2017-04-27T06:16:49.308Z,5088
2017-04-27T06:17:30.289Z,4880
2017-04-27T06:18:11.145Z,4964
2017-04-27T06:18:52.028Z,5232
2017-04-27T06:19:32.902Z,5692
2017-04-27T06:20:13.788Z,6064
2017-04-27T06:20:54.677Z,6228
2017-04-27T06:21:35.555Z,6420
2017-04-27T06:22:16.446Z,6784
2017-04-27T06:22:57.332Z,7312
2017-04-27T06:23:38.196Z,7624
2017-04-27T06:24:19.822Z,7784
2017-04-27T06:25:00.705Z,7944
2017-04-27T06:25:41.582Z,8024
2017-04-27T06:26:22.465Z,8036
2017-04-27T06:27:03.330Z,8020
2017-04-27T06:27:44.182Z,7768
2017-04-27T06:28:25.035Z,7548
2017-04-27T06:29:05.929Z,7184
2017-04-27T06:29:46.847Z,7044
2017-04-27T06:30:27.804Z,6864
2017-04-27T06:31:08.680Z,6788
2017-04-27T06:31:49.569Z,6808
2017-04-27T06:32:30.430Z,6944
2017-04-27T06:33:11.389Z,7224
2017-04-27T06:33:52.271Z,7260
2017-04-27T06:34:33.146Z,7096
2017-04-27T06:35:14.073Z,6956
2017-04-27T06:35:55.040Z,7096
2017-04-27T06:36:35.952Z,7288
2017-04-27T06:37:16.814Z,7320
2017-04-27T06:37:57.743Z,6856
2017-04-27T06:38:38.611Z,6224
2017-04-27T06:39:19.491Z,6200
2017-04-27T06:40:00.408Z,6572
2017-04-27T06:40:41.363Z,6476
2017-04-27T06:41:22.220Z,6368
2017-04-27T06:42:03.091Z,6096
2017-04-27T06:42:43.967Z,6400
2017-04-27T06:43:24.841Z,6680
2017-04-27T06:44:05.715Z,6892
2017-04-27T06:44:46.603Z,7348
2017-04-27T06:45:27.497Z,8192
2017-04-27T06:46:08.367Z,8056
2017-04-27T06:46:49.254Z,8420
2017-04-27T06:47:30.158Z,12140
2017-04-27T06:48:11.035Z,12196
2017-04-27T06:48:51.906Z,12328
2017-04-27T06:49:32.777Z,11008
2017-04-27T06:50:13.697Z,10244
2017-04-27T06:50:54.576Z,8636
2017-04-27T06:51:38.150Z,8176
2017-04-27T06:52:19.029Z,7636
2017-04-27T06:52:59.905Z,7528
2017-04-27T06:53:40.784Z,7656
2017-04-27T06:54:21.665Z,7936
2017-04-27T06:55:02.544Z,10616
2017-04-27T06:55:43.419Z,12660
2017-04-27T06:56:24.289Z,14128
2017-04-27T06:57:05.177Z,14968
2017-04-27T06:57:46.054Z,15712
2017-04-27T06:58:26.959Z,16128
2017-04-27T06:59:07.826Z,15936
2017-04-27T06:59:48.708Z,15584
2017-04-27T07:00:29.575Z,14616
2017-04-27T07:01:10.461Z,15872
2017-04-27T07:01:51.349Z,20224
2017-04-27T07:05:54.325Z,30400
2017-04-27T07:06:35.212Z,24928
2017-04-27T07:07:18.789Z,25472
2017-04-27T07:07:59.682Z,24608
2017-04-27T07:08:40.562Z,20576
2017-04-27T07:09:22.290Z,20480
2017-04-27T07:10:03.199Z,21664
2017-04-27T07:10:44.080Z,27840
2017-04-27T07:14:30.752Z,24768
2017-04-27T07:15:11.667Z,16768
2017-04-27T07:15:52.543Z,23360
2017-04-27T07:18:21.720Z,26720
2017-04-27T07:19:02.613Z,25344
2017-04-27T07:19:58.219Z,29120
2017-04-27T07:20:39.110Z,28576
2017-04-27T07:21:19.976Z,32384
2017-04-27T07:22:00.980Z,31808
2017-04-27T07:22:41.859Z,31424
2017-04-27T07:23:22.746Z,34048
2017-04-27T07:24:03.635Z,32288
2017-04-27T07:24:44.530Z,31296
2017-04-27T07:25:25.419Z,31008
2017-04-27T07:26:06.381Z,37696
2017-04-27T07:26:47.258Z,37216
2017-04-27T07:27:28.161Z,30112
2017-04-27T07:28:09.078Z,27168
2017-04-27T07:28:49.948Z,27584
2017-04-27T07:29:30.819Z,25472
2017-04-27T07:30:11.712Z,28032
2017-04-27T07:30:52.604Z,27808
2017-04-27T07:31:33.507Z,30816
2017-04-27T07:32:14.387Z,35456
2017-04-27T07:32:55.346Z,36992
2017-04-27T07:33:36.214Z,33856
2017-04-27T07:34:17.100Z,29792
2017-04-27T07:34:57.989Z,35936
2017-04-27T07:35:38.867Z,32224
2017-04-27T07:36:19.755Z,32736
2017-04-27T07:37:00.633Z,34912
2017-04-27T07:37:41.526Z,39936
2017-04-27T07:38:22.452Z,36352
2017-04-27T07:39:03.366Z,41792
2017-04-27T07:39:44.252Z,46144
2017-04-27T07:40:25.107Z,51808
2017-04-27T07:41:05.988Z,52000
2017-04-27T07:41:46.876Z,42560
2017-04-27T07:42:27.757Z,28544
2017-04-27T07:43:08.662Z,27488
2017-04-27T07:43:49.575Z,43392
2017-04-27T07:44:30.443Z,39584
2017-04-27T07:45:11.311Z,40288
2017-04-27T07:45:52.213Z,40128
2017-04-27T07:46:33.106Z,40608
2017-04-27T07:47:13.993Z,41408
2017-04-27T07:47:54.876Z,42720
2017-04-27T07:48:35.765Z,44992
2017-04-27T07:49:16.649Z,47008
2017-04-27T07:49:57.529Z,46304
2017-04-27T07:50:38.402Z,49888
2017-04-27T07:51:19.283Z,46688
2017-04-27T07:52:00.168Z,39936
2017-04-27T07:52:41.194Z,42208
2017-04-27T07:53:22.111Z,41376
2017-04-27T07:54:03.026Z,40416
2017-04-27T07:54:43.909Z,37920
2017-04-27T07:55:24.873Z,28352
2017-04-27T07:56:05.762Z,43712
2017-04-27T07:56:46.651Z,38624
2017-04-27T07:57:27.574Z,43040
2017-04-27T07:58:08.533Z,43296
2017-04-27T07:58:49.410Z,22016
2017-04-27T07:59:30.324Z,47616
2017-04-27T08:00:12.059Z,49088
2017-04-27T08:00:52.966Z,47840
2017-04-27T08:01:33.883Z,49184
2017-04-27T08:02:14.787Z,49152
2017-04-27T08:02:55.650Z,51712
2017-04-27T08:03:36.499Z,17792
2017-04-27T08:04:17.385Z,27584
2017-04-27T08:04:58.268Z,20736
2017-04-27T08:05:39.173Z,29024
2017-04-27T08:06:20.058Z,42944
2017-04-27T08:07:00.943Z,45760
2017-04-27T08:07:41.880Z,22176
2017-04-27T08:08:22.746Z,22016
2017-04-27T08:09:03.621Z,14284
2017-04-27T08:09:44.502Z,24320
2017-04-27T08:10:25.383Z,20128
2017-04-27T08:11:06.270Z,22720
2017-04-27T08:11:47.151Z,17632
2017-04-27T08:12:28.036Z,18464
2017-04-27T08:13:08.947Z,44832
2017-04-27T08:13:49.886Z,17920
2017-04-27T08:14:30.764Z,24384
2017-04-27T08:15:11.608Z,47872
2017-04-27T08:15:52.508Z,49696
2017-04-27T08:16:33.386Z,45696
2017-04-27T08:17:14.270Z,36704
2017-04-27T08:17:55.153Z,43360
2017-04-27T08:18:36.049Z,39104
2017-04-27T08:19:16.942Z,44448
2017-04-27T08:19:57.829Z,43360
2017-04-27T08:20:38.719Z,39584
2017-04-27T08:21:19.610Z,44256
2017-04-27T08:22:00.491Z,46656
2017-04-27T08:22:41.392Z,48256
2017-04-27T08:25:11.280Z,38528
2017-04-27T08:25:52.202Z,15472
2017-04-27T08:26:33.091Z,15136
2017-04-27T08:27:13.984Z,63072
2017-04-27T08:27:54.863Z,61120
2017-04-27T08:28:35.745Z,58816
2017-04-27T08:29:16.631Z,57280
2017-04-27T08:29:57.525Z,55680
2017-04-27T08:30:38.430Z,50912
2017-04-27T08:31:19.324Z,36544
2017-04-27T08:32:00.211Z,13024
2017-04-27T08:32:41.091Z,11944
2017-04-27T08:33:21.975Z,11588
2017-04-27T08:34:02.864Z,11116
2017-04-27T08:34:43.764Z,30240
2017-04-27T08:35:24.656Z,39296
2017-04-27T08:36:05.563Z,39616
2017-04-27T08:36:46.458Z,42880
2017-04-27T08:37:27.351Z,51040
2017-04-27T08:38:08.264Z,55296
2017-04-27T08:38:49.160Z,56064
2017-04-27T08:40:43.771Z,35424
2017-04-27T08:41:24.660Z,62048
2017-04-27T08:42:05.560Z,57696
2017-04-27T08:42:46.455Z,56864
2017-04-27T08:46:43.460Z,15644
2017-04-27T08:47:25.257Z,14584
2017-04-27T08:48:06.139Z,11280
2017-04-27T08:48:47.026Z,9732
2017-04-27T08:49:27.905Z,8104
2017-04-27T08:50:08.797Z,7528
2017-04-27T08:50:49.700Z,7560
2017-04-27T08:51:30.574Z,8732
2017-04-27T08:52:11.454Z,10732
2017-04-27T08:52:52.340Z,55872
2017-04-27T08:53:33.237Z,44416
2017-04-27T08:54:14.124Z,51264
2017-04-27T08:54:55.023Z,18688
2017-04-27T08:55:37.754Z,12360
2017-04-27T08:56:18.638Z,12360
2017-04-27T08:56:59.533Z,11944
2017-04-27T08:57:40.428Z,9820
2017-04-27T08:58:21.326Z,11296
2017-04-27T08:59:02.206Z,63328
2017-04-27T08:59:43.087Z,62016
2017-04-27T09:00:24.019Z,62784
2017-04-27T09:01:04.909Z,66592
2017-04-27T09:01:45.794Z,72160
2017-04-27T09:02:26.668Z,74752
2017-04-27T09:03:07.562Z,74208
2017-04-27T09:03:49.264Z,74592
2017-04-27T09:04:30.147Z,76832
2017-04-27T09:05:11.047Z,73792
2017-04-27T09:05:51.939Z,68192
2017-04-27T09:06:32.821Z,52128
2017-04-27T09:07:13.705Z,13632
2017-04-27T09:07:54.602Z,13632
2017-04-27T09:08:35.498Z,51584
2017-04-27T09:09:16.389Z,51680
2017-04-27T09:09:57.280Z,27360
2017-04-27T09:10:38.161Z,12624
2017-04-27T09:11:19.035Z,20096
2017-04-27T09:12:00.884Z,22304
2017-04-27T09:12:41.810Z,11984
2017-04-27T09:13:22.704Z,37120
2017-04-27T09:14:03.581Z,20736
2017-04-27T09:14:44.472Z,15112
2017-04-27T09:15:25.353Z,15984
2017-04-27T09:16:06.230Z,16288
2017-04-27T09:16:47.118Z,14972
2017-04-27T09:17:27.998Z,14684
2017-04-27T09:18:08.885Z,16544
2017-04-27T09:18:49.788Z,16768
2017-04-27T09:19:30.660Z,15620
2017-04-27T09:20:11.528Z,17856
2017-04-27T09:20:52.416Z,17568
2017-04-27T09:21:33.295Z,17280
2017-04-27T09:22:14.184Z,17120
2017-04-27T09:22:55.067Z,14424
2017-04-27T09:23:35.957Z,13596
2017-04-27T09:24:16.826Z,12308
2017-04-27T09:24:57.719Z,11472
2017-04-27T09:25:38.622Z,11520
2017-04-27T09:26:19.505Z,12428
2017-04-27T09:27:00.386Z,12684
2017-04-27T09:27:41.262Z,12196
2017-04-27T09:28:22.159Z,10824
2017-04-27T09:29:03.036Z,9936
2017-04-27T09:29:43.925Z,9384
2017-04-27T09:30:24.818Z,9232
2017-04-27T09:31:05.702Z,8140
2017-04-27T09:31:46.582Z,8024
2017-04-27T09:32:27.460Z,8608
2017-04-27T09:33:08.327Z,9456
2017-04-27T09:33:49.215Z,9208
2017-04-27T09:34:30.105Z,8944
2017-04-27T09:35:10.982Z,8676
2017-04-27T09:35:51.850Z,9324
2017-04-27T09:36:32.721Z,10180
2017-04-27T09:37:13.613Z,7592
2017-04-27T09:37:54.521Z,7072
2017-04-27T09:38:36.309Z,6988
2017-04-27T09:39:17.192Z,6556
2017-04-27T09:39:58.076Z,6612
2017-04-27T09:40:38.958Z,6652
2017-04-27T09:41:19.833Z,6576
2017-04-27T09:42:00.747Z,6340
2017-04-27T09:42:41.613Z,6192
2017-04-27T09:43:22.500Z,6480
2017-04-27T09:44:03.394Z,77792
2017-04-27T09:44:46.987Z,81216
2017-04-27T09:45:32.759Z,81568
2017-04-27T09:46:13.645Z,7664
2017-04-27T09:47:02.469Z,80384
2017-04-27T09:47:43.378Z,74304
2017-04-27T09:48:24.239Z,75808
2017-04-27T09:49:05.118Z,85280
2017-04-27T09:49:46.003Z,90336
2017-04-27T09:50:26.884Z,81664
2017-04-27T09:51:07.776Z,86752
2017-04-27T09:51:48.668Z,34368
2017-04-27T09:52:29.533Z,66432
2017-04-27T09:53:10.418Z,78848
2017-04-27T09:53:51.313Z,11516
2017-04-27T09:54:38.273Z,10536
2017-04-27T09:55:19.162Z,9112
2017-04-27T09:56:00.062Z,7832
2017-04-27T09:56:40.938Z,7700
2017-04-27T09:57:21.819Z,8036
2017-04-27T09:58:02.700Z,8168
2017-04-27T09:58:44.124Z,8896
2017-04-27T09:59:25.001Z,10244
2017-04-27T10:00:05.892Z,12816
2017-04-27T10:00:46.773Z,9256
2017-04-27T10:01:27.662Z,8852
2017-04-27T10:02:08.554Z,11308
2017-04-27T10:02:49.448Z,10316
2017-04-27T10:03:30.324Z,8112
2017-04-27T10:04:11.192Z,6872
2017-04-27T10:04:52.071Z,6580
2017-04-27T10:05:32.970Z,6316
2017-04-27T10:06:13.856Z,6316
2017-04-27T10:06:54.729Z,6108
2017-04-27T10:07:35.657Z,6092
2017-04-27T10:08:16.482Z,9644
2017-04-27T10:12:33.376Z,12872
2017-04-27T10:13:15.245Z,12208
2017-04-27T10:13:56.197Z,11332
2017-04-27T10:14:37.057Z,10844
2017-04-27T10:15:17.930Z,10692
2017-04-27T10:15:58.824Z,10508
2017-04-27T10:16:39.713Z,10372
2017-04-27T10:17:20.608Z,10368
2017-04-27T10:18:01.480Z,10292
2017-04-27T10:18:42.359Z,10124
2017-04-27T10:19:23.233Z,10016
2017-04-27T10:20:04.112Z,10148
2017-04-27T10:20:45.013Z,10212
2017-04-27T10:21:25.886Z,10216
2017-04-27T10:22:06.774Z,10248
2017-04-27T10:22:47.646Z,10456
2017-04-27T10:23:28.524Z,10628
2017-04-27T10:24:09.401Z,10752
2017-04-27T10:24:50.311Z,10976
2017-04-27T10:25:31.219Z,9116
2017-04-27T10:26:12.126Z,11588
2017-04-27T10:26:53.015Z,10920
2017-04-27T10:27:33.889Z,10872
2017-04-27T10:28:14.761Z,11204
2017-04-27T10:28:55.626Z,11896
2017-04-27T10:29:36.521Z,12172
2017-04-27T10:30:17.407Z,12416
2017-04-27T10:30:58.299Z,12496
2017-04-27T10:31:39.178Z,10172
2017-04-27T10:32:20.066Z,9396
2017-04-27T10:33:00.962Z,9740
2017-04-27T10:33:41.882Z,10764
2017-04-27T10:34:22.755Z,13420
2017-04-27T10:35:03.710Z,13044
2017-04-27T10:35:44.597Z,13172
2017-04-27T10:36:25.505Z,12120
2017-04-27T10:37:06.402Z,10972
2017-04-27T10:37:47.325Z,9752
2017-04-27T10:38:28.209Z,9576
2017-04-27T10:39:09.082Z,10356
2017-04-27T10:39:49.973Z,11136
2017-04-27T10:40:30.875Z,11240
2017-04-27T10:41:26.705Z,10792
2017-04-27T10:42:07.599Z,11532
2017-04-27T10:44:55.078Z,9540
2017-04-27T10:45:35.958Z,9928
2017-04-27T10:51:11.802Z,7284
2017-04-27T10:51:52.677Z,7284
2017-04-27T10:52:33.570Z,8432
2017-04-27T10:53:14.524Z,11700
2017-04-27T10:53:55.418Z,9732
2017-04-27T10:54:36.296Z,8436
2017-04-27T10:55:17.183Z,8980
2017-04-27T10:55:58.076Z,11152
2017-04-27T10:56:38.962Z,12996
2017-04-27T10:57:19.859Z,13980
2017-04-27T10:58:00.751Z,14080
2017-04-27T10:58:41.643Z,10572
2017-04-27T10:59:22.516Z,10112
2017-04-27T11:00:03.409Z,9512
2017-04-27T11:00:44.312Z,8768
2017-04-27T11:01:25.228Z,8296
2017-04-27T11:02:06.113Z,8140
2017-04-27T11:02:47.012Z,7876
2017-04-27T11:03:27.884Z,8648
2017-04-27T11:04:08.771Z,11140
2017-04-27T11:04:49.671Z,11240
2017-04-27T11:05:30.539Z,11832
2017-04-27T11:06:11.433Z,11356
2017-04-27T11:06:52.347Z,11120
2017-04-27T11:07:33.229Z,10332
2017-04-27T11:08:14.119Z,8872
2017-04-27T11:08:55.034Z,7068
2017-04-27T11:09:35.918Z,6904
2017-04-27T11:10:16.800Z,9872
2017-04-27T11:10:57.690Z,9316
2017-04-27T11:11:38.577Z,11960
2017-04-27T11:12:19.475Z,12112
2017-04-27T11:13:00.368Z,11856
2017-04-27T11:13:41.260Z,10608
2017-04-27T11:14:22.339Z,10604
2017-04-27T11:15:03.042Z,10680
2017-04-27T11:15:43.921Z,10288
2017-04-27T11:16:24.822Z,10872
2017-04-27T11:17:05.707Z,11324
2017-04-27T11:17:46.600Z,12004
2017-04-27T11:18:27.498Z,11360
2017-04-27T11:19:08.385Z,11020
2017-04-27T11:19:49.263Z,11148
2017-04-27T11:20:30.156Z,10960
2017-04-27T11:21:11.130Z,10664
2017-04-27T11:21:52.026Z,10328
2017-04-27T11:22:32.911Z,10448
2017-04-27T11:23:13.788Z,10888
2017-04-27T11:23:54.677Z,11448
2017-04-27T11:24:35.574Z,11492
2017-04-27T11:25:16.464Z,11252
2017-04-27T11:25:57.366Z,11132
2017-04-27T11:26:38.272Z,10936
2017-04-27T11:27:19.188Z,10916
2017-04-27T11:28:00.080Z,10832
2017-04-27T11:28:40.971Z,10556
2017-04-27T11:29:21.881Z,10280
2017-04-27T11:30:02.766Z,10176
2017-04-27T11:30:43.662Z,10144
2017-04-27T11:31:24.557Z,10208
2017-04-27T11:32:05.436Z,9252
2017-04-27T11:32:46.318Z,7996
2017-04-27T11:33:27.210Z,7164
2017-04-27T11:34:08.106Z,6840
2017-04-27T11:34:48.961Z,6660
2017-04-27T11:35:29.853Z,6324
2017-04-27T11:36:10.749Z,6356
2017-04-27T11:36:54.509Z,6388
2017-04-27T11:37:35.402Z,6372
2017-04-27T11:39:54.320Z,6156
2017-04-27T11:40:37.923Z,6280
2017-04-27T11:41:18.821Z,6536
2017-04-27T11:41:59.709Z,6936
2017-04-27T11:42:40.598Z,7364
2017-04-27T11:43:21.471Z,7732
2017-04-27T11:44:02.346Z,7928
2017-04-27T11:44:43.222Z,7584
2017-04-27T11:45:30.502Z,7232
2017-04-27T11:46:11.448Z,7140
2017-04-27T11:46:52.310Z,7448
2017-04-27T11:47:33.175Z,7644
2017-04-27T11:48:16.703Z,8072
2017-04-27T11:48:57.598Z,8924
2017-04-27T11:49:38.469Z,9552
2017-04-27T11:50:19.352Z,10220
2017-04-27T11:51:00.217Z,10356
2017-04-27T11:51:41.111Z,10108
2017-04-27T11:52:21.977Z,9788
2017-04-27T11:53:02.841Z,9500
2017-04-27T11:53:43.721Z,9092
2017-04-27T11:54:24.590Z,8808
2017-04-27T11:55:05.457Z,8836
2017-04-27T11:55:46.321Z,10012
2017-04-27T11:56:27.203Z,9780
2017-04-27T11:57:08.054Z,10292
2017-04-27T11:57:48.917Z,11112
2017-04-27T11:58:29.778Z,10816
2017-04-27T11:59:10.663Z,10408
2017-04-27T11:59:51.552Z,10724
2017-04-27T12:00:32.425Z,10100
2017-04-27T12:01:13.311Z,9024
2017-04-27T12:01:54.187Z,8892
2017-04-27T12:02:35.074Z,8612
2017-04-27T12:03:15.990Z,8268
2017-04-27T12:03:56.820Z,8680
2017-04-27T12:04:37.698Z,8652
2017-04-27T12:05:18.582Z,8304
2017-04-27T12:05:59.491Z,7348
2017-04-27T12:06:40.352Z,6908
2017-04-27T12:07:21.242Z,6300
2017-04-27T12:08:02.136Z,6032
2017-04-27T12:08:43.022Z,5868
2017-04-27T12:09:23.893Z,5604
2017-04-27T12:10:04.790Z,5536
2017-04-27T12:10:45.705Z,5536
2017-04-27T12:11:26.592Z,5512
2017-04-27T12:12:07.482Z,5604
2017-04-27T12:12:48.362Z,6444
2017-04-27T12:13:29.312Z,6424
2017-04-27T12:14:10.215Z,5876
2017-04-27T12:14:51.073Z,6764
2017-04-27T12:15:31.961Z,6936
2017-04-27T12:17:30.721Z,6740
2017-04-27T12:18:11.606Z,6908
2017-04-27T12:18:52.497Z,7296
2017-04-27T12:19:33.373Z,7536
2017-04-27T12:20:14.245Z,7472
2017-04-27T12:20:55.102Z,7308
2017-04-27T12:21:35.981Z,7124
2017-04-27T12:22:16.857Z,7052
2017-04-27T12:22:57.730Z,6956
2017-04-27T12:23:38.674Z,7192
2017-04-27T12:24:19.561Z,7536
2017-04-27T12:25:00.453Z,7588
2017-04-27T12:25:41.340Z,7656
2017-04-27T12:26:22.235Z,7272
2017-04-27T12:27:03.110Z,7008
2017-04-27T12:27:43.988Z,6740
2017-04-27T12:28:24.862Z,6524
2017-04-27T12:29:05.740Z,7080
2017-04-27T12:29:46.630Z,7044
2017-04-27T12:30:27.506Z,6272
2017-04-27T12:31:08.449Z,6588
2017-04-27T12:31:49.330Z,7240
2017-04-27T12:32:30.204Z,8052
2017-04-27T12:33:11.092Z,8704
2017-04-27T12:33:51.984Z,8480
2017-04-27T12:34:32.924Z,7592
2017-04-27T12:35:13.818Z,7144